sensor_id;sensor_type;location;lat;lon;timestamp;temperature;humidity
7378;DHT22;3730;50.856;12.776;2024-01-25T00:00:57;7.80;1.00
7378;DHT22;3730;50.856;12.776;2024-01-25T00:03:23;7.50;1.00
7378;DHT22;3730;50.856;12.776;2024-01-25T00:05:48;7.50;1.00
7378;DHT22;3730;50.856;12.776;2024-01-25T00:08:14;7.30;1.00
7378;DHT22;3730;50.856;12.776;2024-01-25T00:10:40;7.40;1.00
7378;DHT22;3730;50.856;12.776;2024-01-25T00:13:06;7.40;1.00
7378;DHT22;3730;50.856;12.776;2024-01-25T00:15:32;7.30;1.00
7378;DHT22;3730;50.856;12.776;2024-01-25T00:17:58;7.50;1.00
7378;DHT22;3730;50.856;12.776;2024-01-25T00:22:49;7.40;1.00
7378;DHT22;3730;50.856;12.776;2024-01-25T00:25:15;7.40;1.00
7378;DHT22;3730;50.856;12.776;2024-01-25T00:27:40;7.30;1.00
7378;DHT22;3730;50.856;12.776;2024-01-25T00:30:06;7.20;1.00
7378;DHT22;3730;50.856;12.776;2024-01-25T00:34:58;7.30;1.00
7378;DHT22;3730;50.856;12.776;2024-01-25T00:37:24;7.40;1.00
7378;DHT22;3730;50.856;12.776;2024-01-25T00:39:50;7.60;1.00
7378;DHT22;3730;50.856;12.776;2024-01-25T00:42:16;7.40;1.00
7378;DHT22;3730;50.856;12.776;2024-01-25T00:44:42;7.30;1.00
7378;DHT22;3730;50.856;12.776;2024-01-25T00:47:08;7.30;1.00
7378;DHT22;3730;50.856;12.776;2024-01-25T00:49:34;7.20;1.00
7378;DHT22;3730;50.856;12.776;2024-01-25T00:52:02;7.30;1.00
7378;DHT22;3730;50.856;12.776;2024-01-25T00:56:55;7.30;1.00
7378;DHT22;3730;50.856;12.776;2024-01-25T00:59:21;7.30;1.00
7378;DHT22;3730;50.856;12.776;2024-01-25T01:01:48;7.20;1.00
7378;DHT22;3730;50.856;12.776;2024-01-25T01:04:14;7.20;1.00
7378;DHT22;3730;50.856;12.776;2024-01-25T01:06:40;7.20;1.00
7378;DHT22;3730;50.856;12.776;2024-01-25T01:09:06;7.20;1.00
7378;DHT22;3730;50.856;12.776;2024-01-25T01:11:32;7.10;1.00
7378;DHT22;3730;50.856;12.776;2024-01-25T01:13:58;7.30;1.00
7378;DHT22;3730;50.856;12.776;2024-01-25T01:16:24;7.10;1.00
7378;DHT22;3730;50.856;12.776;2024-01-25T01:21:15;7.00;1.00
7378;DHT22;3730;50.856;12.776;2024-01-25T01:23:41;7.30;1.00
7378;DHT22;3730;50.856;12.776;2024-01-25T01:26:07;7.20;1.00
7378;DHT22;3730;50.856;12.776;2024-01-25T01:28:32;7.00;1.00
7378;DHT22;3730;50.856;12.776;2024-01-25T01:30:58;7.10;1.00
7378;DHT22;3730;50.856;12.776;2024-01-25T01:33:24;7.20;1.00
7378;DHT22;3730;50.856;12.776;2024-01-25T01:35:49;7.30;1.00
7378;DHT22;3730;50.856;12.776;2024-01-25T01:38:15;7.00;1.00
7378;DHT22;3730;50.856;12.776;2024-01-25T01:43:06;7.10;1.00
7378;DHT22;3730;50.856;12.776;2024-01-25T01:45:32;7.10;1.00
7378;DHT22;3730;50.856;12.776;2024-01-25T01:47:58;7.00;1.00
7378;DHT22;3730;50.856;12.776;2024-01-25T01:50:25;7.20;1.00
7378;DHT22;3730;50.856;12.776;2024-01-25T01:52:51;7.00;1.00
7378;DHT22;3730;50.856;12.776;2024-01-25T01:55:17;7.10;1.00
7378;DHT22;3730;50.856;12.776;2024-01-25T01:57:44;7.00;1.00
7378;DHT22;3730;50.856;12.776;2024-01-25T02:05:03;7.00;1.00
7378;DHT22;3730;50.856;12.776;2024-01-25T02:07:30;7.10;1.00
7378;DHT22;3730;50.856;12.776;2024-01-25T02:09:56;6.90;1.00
7378;DHT22;3730;50.856;12.776;2024-01-25T02:12:21;6.90;1.00
7378;DHT22;3730;50.856;12.776;2024-01-25T02:14:47;7.10;1.00
7378;DHT22;3730;50.856;12.776;2024-01-25T02:17:12;7.10;1.00
7378;DHT22;3730;50.856;12.776;2024-01-25T02:19:38;7.10;1.00
7378;DHT22;3730;50.856;12.776;2024-01-25T02:22:05;7.00;1.00
7378;DHT22;3730;50.856;12.776;2024-01-25T02:29:23;7.00;1.00
7378;DHT22;3730;50.856;12.776;2024-01-25T02:31:49;7.00;1.00
7378;DHT22;3730;50.856;12.776;2024-01-25T02:34:15;7.00;1.00
7378;DHT22;3730;50.856;12.776;2024-01-25T02:36:41;6.90;1.00
7378;DHT22;3730;50.856;12.776;2024-01-25T02:39:06;7.00;1.00
7378;DHT22;3730;50.856;12.776;2024-01-25T02:41:32;6.80;1.00
7378;DHT22;3730;50.856;12.776;2024-01-25T02:46:24;7.00;1.00
7378;DHT22;3730;50.856;12.776;2024-01-25T02:48:49;7.00;1.00
7378;DHT22;3730;50.856;12.776;2024-01-25T02:51:15;6.80;1.00
7378;DHT22;3730;50.856;12.776;2024-01-25T02:53:41;6.80;1.00
7378;DHT22;3730;50.856;12.776;2024-01-25T02:58:33;6.60;1.00
7378;DHT22;3730;50.856;12.776;2024-01-25T03:00:59;6.50;1.00
7378;DHT22;3730;50.856;12.776;2024-01-25T03:03:24;6.80;1.00
7378;DHT22;3730;50.856;12.776;2024-01-25T03:05:53;6.40;1.00
7378;DHT22;3730;50.856;12.776;2024-01-25T03:08:18;6.60;1.00
7378;DHT22;3730;50.856;12.776;2024-01-25T03:10:45;6.60;1.00
7378;DHT22;3730;50.856;12.776;2024-01-25T03:13:11;6.50;1.00
7378;DHT22;3730;50.856;12.776;2024-01-25T03:15:37;6.50;1.00
7378;DHT22;3730;50.856;12.776;2024-01-25T03:18:02;6.80;1.00
7378;DHT22;3730;50.856;12.776;2024-01-25T03:20:28;6.80;1.00
7378;DHT22;3730;50.856;12.776;2024-01-25T03:22:54;6.80;1.00
7378;DHT22;3730;50.856;12.776;2024-01-25T03:25:21;6.70;1.00
7378;DHT22;3730;50.856;12.776;2024-01-25T03:32:38;6.60;1.00
7378;DHT22;3730;50.856;12.776;2024-01-25T03:35:04;6.90;1.00
7378;DHT22;3730;50.856;12.776;2024-01-25T03:37:30;6.60;1.00
7378;DHT22;3730;50.856;12.776;2024-01-25T03:44:47;6.70;1.00
7378;DHT22;3730;50.856;12.776;2024-01-25T03:47:13;6.60;1.00
7378;DHT22;3730;50.856;12.776;2024-01-25T03:49:39;6.80;1.00
7378;DHT22;3730;50.856;12.776;2024-01-25T03:52:05;6.60;1.00
7378;DHT22;3730;50.856;12.776;2024-01-25T03:54:31;6.80;1.00
7378;DHT22;3730;50.856;12.776;2024-01-25T03:56:56;6.60;1.00
7378;DHT22;3730;50.856;12.776;2024-01-25T03:59:22;6.70;1.00
7378;DHT22;3730;50.856;12.776;2024-01-25T04:01:47;6.70;1.00
7378;DHT22;3730;50.856;12.776;2024-01-25T04:04:13;6.60;1.00
7378;DHT22;3730;50.856;12.776;2024-01-25T04:06:41;6.60;1.00
7378;DHT22;3730;50.856;12.776;2024-01-25T04:09:11;6.40;1.00
7378;DHT22;3730;50.856;12.776;2024-01-25T04:11:37;6.40;1.00
7378;DHT22;3730;50.856;12.776;2024-01-25T04:14:03;6.50;1.00
7378;DHT22;3730;50.856;12.776;2024-01-25T04:16:29;6.40;1.00
7378;DHT22;3730;50.856;12.776;2024-01-25T04:18:54;6.30;1.00
7378;DHT22;3730;50.856;12.776;2024-01-25T04:21:20;6.60;1.00
7378;DHT22;3730;50.856;12.776;2024-01-25T04:23:46;6.30;1.00
7378;DHT22;3730;50.856;12.776;2024-01-25T04:26:11;6.60;1.00
7378;DHT22;3730;50.856;12.776;2024-01-25T04:28:37;6.50;1.00
7378;DHT22;3730;50.856;12.776;2024-01-25T04:31:03;6.60;1.00
7378;DHT22;3730;50.856;12.776;2024-01-25T04:33:29;6.50;1.00
7378;DHT22;3730;50.856;12.776;2024-01-25T04:35:56;6.50;1.00
7378;DHT22;3730;50.856;12.776;2024-01-25T04:38:21;6.40;1.00
7378;DHT22;3730;50.856;12.776;2024-01-25T04:40:47;6.40;1.00
7378;DHT22;3730;50.856;12.776;2024-01-25T04:43:13;6.60;1.00
7378;DHT22;3730;50.856;12.776;2024-01-25T04:45:39;6.50;1.00
7378;DHT22;3730;50.856;12.776;2024-01-25T04:48:06;7.00;1.00
7378;DHT22;3730;50.856;12.776;2024-01-25T04:50:31;6.40;1.00
7378;DHT22;3730;50.856;12.776;2024-01-25T04:52:57;6.50;1.00
7378;DHT22;3730;50.856;12.776;2024-01-25T04:57:49;6.60;1.00
7378;DHT22;3730;50.856;12.776;2024-01-25T05:00:20;6.50;1.00
7378;DHT22;3730;50.856;12.776;2024-01-25T05:02:47;6.40;1.00
7378;DHT22;3730;50.856;12.776;2024-01-25T05:05:12;6.40;1.00
7378;DHT22;3730;50.856;12.776;2024-01-25T05:07:38;6.40;1.00
7378;DHT22;3730;50.856;12.776;2024-01-25T05:10:04;6.30;1.00
7378;DHT22;3730;50.856;12.776;2024-01-25T05:14:56;6.50;1.00
